createdAt,value
2022-08-11T00:01:59.779Z,2.45
2022-08-11T00:04:34.517Z,2.20
2022-08-11T00:07:04.882Z,2.60
2022-08-11T00:09:39.278Z,2.60
2022-08-11T00:12:14.703Z,2.40
2022-08-11T00:14:43.440Z,2.42
2022-08-11T00:17:13.014Z,2.28
2022-08-11T00:20:12.273Z,2.40
2022-08-11T00:22:35.079Z,2.30
2022-08-11T00:25:11.454Z,2.38
2022-08-11T00:27:40.134Z,2.47
2022-08-11T00:30:12.317Z,2.47
2022-08-11T00:35:51.413Z,2.63
2022-08-11T00:37:58.070Z,2.50
2022-08-11T00:40:37.644Z,2.50
2022-08-11T00:43:20.970Z,2.60
2022-08-11T00:48:55.410Z,2.58
2022-08-11T00:52:02.060Z,2.58
2022-08-11T00:54:27.662Z,2.35
2022-08-11T00:57:36.356Z,2.70
2022-08-11T01:00:19.047Z,2.70
2022-08-11T01:03:18.030Z,2.90
2022-08-11T01:06:26.918Z,2.55
2022-08-11T01:09:17.961Z,2.30
2022-08-11T01:12:21.601Z,2.60
2022-08-11T01:15:07.603Z,2.83
2022-08-11T01:18:08.399Z,2.40
2022-08-11T01:21:17.651Z,2.50
2022-08-11T01:24:09.063Z,2.55
2022-08-11T01:27:19.040Z,2.92
2022-08-11T01:30:20.673Z,2.72
2022-08-11T01:33:02.594Z,2.58
2022-08-11T01:35:55.236Z,2.50
2022-08-11T01:38:46.636Z,2.47
2022-08-11T01:41:25.032Z,3.00
2022-08-11T01:44:39.712Z,2.58
2022-08-11T01:47:53.058Z,2.90
2022-08-11T01:50:38.362Z,2.70
2022-08-11T01:53:36.029Z,3.10
2022-08-11T01:56:22.431Z,3.10
2022-08-11T01:59:17.385Z,2.85
2022-08-11T02:02:44.433Z,2.47
2022-08-11T02:05:23.230Z,2.65
2022-08-11T02:07:58.338Z,2.70
2022-08-11T02:10:56.972Z,2.90
2022-08-11T02:13:53.503Z,2.60
2022-08-11T02:16:59.175Z,2.60
2022-08-11T02:20:09.287Z,2.80
2022-08-11T02:24:04.303Z,2.80
2022-08-11T02:26:23.154Z,2.90
2022-08-11T02:29:26.162Z,3.10
2022-08-11T02:32:42.807Z,3.20
2022-08-11T02:35:28.175Z,2.78
2022-08-11T02:38:16.411Z,2.75
2022-08-11T02:41:31.297Z,3.10
2022-08-11T02:44:20.869Z,3.03
2022-08-11T02:47:14.562Z,2.92
2022-08-11T02:50:07.680Z,2.95
2022-08-11T02:53:02.180Z,3.03
2022-08-11T02:55:57.912Z,2.90
2022-08-11T02:58:41.379Z,2.88
2022-08-11T03:01:28.606Z,3.50
2022-08-11T03:04:09.158Z,2.88
2022-08-11T03:06:52.484Z,3.00
2022-08-11T03:09:27.434Z,3.08
2022-08-11T03:12:53.820Z,3.20
2022-08-11T03:15:48.035Z,3.17
2022-08-11T03:18:26.914Z,3.13
2022-08-11T03:21:23.612Z,3.40
2022-08-11T03:24:03.462Z,3.10
2022-08-11T03:26:54.859Z,3.22
2022-08-11T03:29:35.675Z,3.10
2022-08-11T03:32:19.477Z,3.10
2022-08-11T03:34:48.160Z,3.38
2022-08-11T03:37:53.109Z,3.10
2022-08-11T03:40:38.235Z,3.35
2022-08-11T03:43:45.585Z,3.10
2022-08-11T03:46:35.939Z,3.45
2022-08-11T03:49:20.940Z,3.92
2022-08-11T03:51:55.790Z,3.75
2022-08-11T03:54:43.094Z,3.08
2022-08-11T03:57:30.833Z,3.10
2022-08-11T04:00:10.124Z,3.42
2022-08-11T04:02:57.661Z,3.63
2022-08-11T04:05:42.286Z,3.47
2022-08-11T04:08:11.850Z,3.42
2022-08-11T04:10:50.534Z,3.53
2022-08-11T04:13:23.116Z,3.28
2022-08-11T04:16:16.337Z,3.92
2022-08-11T04:19:47.235Z,3.90
2022-08-11T04:22:23.031Z,3.80
2022-08-11T04:25:16.272Z,4.10
2022-08-11T04:28:07.554Z,3.95
2022-08-11T04:30:56.008Z,3.40
2022-08-11T04:34:07.034Z,3.80
2022-08-11T04:37:13.607Z,4.00
2022-08-11T04:40:04.931Z,4.88
2022-08-11T04:43:21.622Z,4.25
2022-08-11T04:46:03.368Z,4.50
2022-08-11T04:49:10.942Z,4.60
2022-08-11T04:52:19.350Z,4.20
2022-08-11T04:55:37.817Z,4.57
2022-08-11T04:58:32.115Z,4.38
2022-08-11T05:01:42.376Z,4.10
2022-08-11T05:04:58.445Z,4.20
2022-08-11T05:07:52.530Z,4.10
2022-08-11T05:10:43.159Z,4.25
2022-08-11T05:13:30.362Z,4.70
2022-08-11T05:16:27.718Z,4.78
2022-08-11T05:19:16.256Z,4.65
2022-08-11T05:22:10.870Z,4.95
2022-08-11T05:25:03.024Z,4.97
2022-08-11T05:28:10.280Z,5.07
2022-08-11T05:31:00.439Z,4.45
2022-08-11T05:33:55.317Z,4.28
2022-08-11T05:36:37.451Z,4.05
2022-08-11T05:39:36.214Z,3.67
2022-08-11T05:42:29.858Z,3.90
2022-08-11T05:45:58.122Z,4.20
2022-08-11T05:48:40.815Z,3.50
2022-08-11T05:51:30.433Z,4.05
2022-08-11T05:54:29.283Z,3.40
2022-08-11T05:56:59.984Z,3.38
2022-08-11T05:59:31.071Z,3.72
2022-08-11T06:02:06.034Z,3.53
2022-08-11T06:04:34.411Z,3.83
2022-08-11T06:07:09.342Z,3.75
2022-08-11T06:09:49.235Z,3.25
2022-08-11T06:12:22.775Z,3.22
2022-08-11T06:14:57.186Z,3.55
2022-08-11T06:17:26.451Z,3.13
2022-08-11T06:20:13.237Z,3.57
2022-08-11T06:22:43.923Z,3.55
2022-08-11T06:25:12.346Z,3.40
2022-08-11T06:27:42.040Z,3.20
2022-08-11T06:30:19.460Z,3.90
2022-08-11T06:32:51.394Z,3.53
2022-08-11T06:35:37.988Z,3.47
2022-08-11T06:38:35.091Z,3.10
2022-08-11T06:41:25.978Z,3.20
2022-08-11T06:44:14.369Z,3.20
2022-08-11T06:46:44.115Z,2.80
2022-08-11T06:49:32.072Z,2.85
2022-08-11T06:52:32.132Z,2.88
2022-08-11T06:55:05.541Z,2.95
2022-08-11T06:57:56.351Z,2.40
2022-08-11T07:00:30.554Z,2.50
2022-08-11T07:03:11.591Z,2.47
2022-08-11T07:05:39.004Z,3.03
2022-08-11T07:09:02.322Z,2.78
2022-08-11T07:12:06.578Z,2.60
2022-08-11T07:15:00.131Z,2.83
2022-08-11T07:17:30.235Z,2.83
2022-08-11T07:20:19.891Z,2.30
2022-08-11T07:23:13.079Z,2.60
2022-08-11T07:26:01.185Z,2.63
2022-08-11T07:28:48.980Z,2.60
2022-08-11T07:31:40.682Z,2.47
2022-08-11T07:34:12.071Z,2.63
2022-08-11T07:36:46.067Z,2.20
2022-08-11T07:39:21.043Z,2.60
2022-08-11T07:41:50.531Z,1.90
2022-08-11T07:44:18.027Z,2.28
2022-08-11T07:47:09.298Z,2.47
2022-08-11T07:49:56.615Z,1.98
2022-08-11T07:52:32.249Z,2.15
2022-08-11T07:55:06.313Z,2.15
2022-08-11T07:58:15.017Z,2.35
2022-08-11T08:01:23.664Z,2.33
2022-08-11T08:04:09.806Z,2.10
2022-08-11T08:06:56.488Z,2.33
2022-08-11T08:09:43.220Z,2.30
2022-08-11T08:12:28.875Z,2.20
2022-08-11T08:15:15.651Z,2.20
2022-08-11T08:18:20.753Z,2.08
2022-08-11T08:20:45.491Z,2.10
2022-08-11T08:23:13.035Z,2.10
2022-08-11T08:25:41.920Z,2.00
2022-08-11T08:28:20.774Z,2.17
2022-08-11T08:30:56.197Z,1.70
2022-08-11T08:33:25.574Z,2.20
2022-08-11T08:36:11.607Z,1.95
2022-08-11T08:38:42.609Z,2.10
2022-08-11T08:41:10.218Z,2.13
2022-08-11T08:43:48.575Z,2.00
2022-08-11T08:46:22.189Z,1.83
2022-08-11T08:48:49.605Z,2.22
2022-08-11T08:52:01.463Z,2.20
2022-08-11T08:56:56.828Z,1.95
2022-08-11T08:59:47.645Z,2.10
2022-08-11T09:02:14.479Z,2.15
2022-08-11T09:04:45.635Z,1.83
2022-08-11T09:07:15.414Z,2.03
2022-08-11T09:09:58.170Z,2.35
2022-08-11T09:12:36.579Z,2.33
2022-08-11T09:15:22.260Z,2.08
2022-08-11T09:17:53.367Z,1.90
2022-08-11T09:20:25.938Z,2.10
2022-08-11T09:24:08.720Z,1.92
2022-08-11T09:26:22.154Z,1.90
2022-08-11T09:28:58.108Z,1.67
2022-08-11T09:31:26.748Z,1.60
2022-08-11T09:33:55.446Z,1.85
2022-08-11T09:36:41.375Z,2.15
2022-08-11T09:39:27.792Z,1.83
2022-08-11T09:42:00.393Z,1.83
2022-08-11T09:44:49.218Z,2.17
2022-08-11T09:47:21.466Z,1.85
2022-08-11T09:52:18.465Z,1.80
2022-08-11T09:54:48.751Z,1.83
2022-08-11T09:57:37.480Z,1.65
2022-08-11T10:00:09.559Z,1.80
2022-08-11T10:02:47.430Z,1.88
2022-08-11T10:05:36.759Z,1.85
2022-08-11T10:08:05.043Z,1.80
2022-08-11T10:10:36.293Z,1.63
2022-08-11T10:14:31.915Z,1.75
2022-08-11T10:16:14.630Z,1.80
2022-08-11T10:18:53.960Z,1.70
2022-08-11T10:21:37.562Z,1.40
2022-08-11T10:24:25.772Z,1.85
2022-08-11T10:26:54.870Z,1.58
2022-08-11T10:30:02.172Z,1.73
2022-08-11T10:32:58.524Z,1.70
2022-08-11T10:35:29.449Z,1.77
2022-08-11T10:38:05.848Z,1.65
2022-08-11T10:40:38.900Z,1.65
2022-08-11T10:43:10.367Z,1.80
2022-08-11T10:45:57.584Z,4.35
2022-08-11T10:48:26.942Z,1.90
2022-08-11T10:51:13.805Z,1.50
2022-08-11T10:54:12.348Z,1.60
2022-08-11T10:56:59.046Z,1.65
2022-08-11T10:59:28.234Z,1.85
2022-08-11T11:01:55.485Z,1.50
2022-08-11T11:04:40.050Z,1.55
2022-08-11T11:07:16.825Z,1.65
2022-08-11T11:09:46.385Z,1.67
2022-08-11T11:12:42.603Z,1.75
2022-08-11T11:15:29.263Z,1.40
2022-08-11T11:18:09.383Z,1.30
2022-08-11T11:20:47.674Z,1.38
2022-08-11T11:23:38.194Z,1.50
2022-08-11T11:26:27.544Z,1.60
2022-08-11T11:29:25.008Z,1.58
2022-08-11T11:32:19.571Z,2.17
2022-08-11T11:35:18.487Z,1.52
2022-08-11T11:38:03.403Z,1.70
2022-08-11T11:40:32.301Z,1.50
2022-08-11T11:43:00.537Z,1.80
2022-08-11T11:45:27.904Z,1.58
2022-08-11T11:47:56.228Z,1.67
2022-08-11T11:50:31.731Z,1.70
2022-08-11T11:53:01.997Z,1.70
2022-08-11T11:55:29.820Z,1.60
2022-08-11T11:58:18.825Z,1.63
2022-08-11T12:01:05.843Z,1.60
2022-08-11T12:03:34.470Z,1.77
2022-08-11T12:06:02.932Z,1.30
2022-08-11T12:08:31.246Z,1.38
2022-08-11T12:11:22.108Z,1.50
2022-08-11T12:13:52.114Z,1.60
2022-08-11T12:16:33.384Z,1.52
2022-08-11T12:19:05.908Z,1.70
2022-08-11T12:21:35.893Z,1.77
2022-08-11T12:24:22.369Z,1.38
2022-08-11T12:27:02.770Z,1.50
2022-08-11T12:29:41.133Z,1.20
2022-08-11T12:32:11.303Z,1.60
2022-08-11T12:34:38.109Z,1.67
2022-08-11T12:37:10.825Z,1.50
2022-08-11T12:40:16.811Z,1.40
2022-08-11T12:43:21.659Z,1.60
2022-08-11T12:45:58.437Z,1.90
2022-08-11T12:48:58.855Z,1.60
2022-08-11T12:52:01.599Z,1.58
2022-08-11T12:55:00.763Z,1.80
2022-08-11T12:58:03.733Z,1.58
2022-08-11T13:00:50.689Z,1.50
2022-08-11T13:03:38.844Z,1.58
2022-08-11T13:06:06.512Z,1.50
2022-08-11T13:08:36.716Z,1.40
2022-08-11T13:11:22.941Z,1.50
2022-08-11T13:13:57.068Z,1.48
2022-08-11T13:16:28.669Z,1.45
2022-08-11T13:18:57.912Z,1.58
2022-08-11T13:21:26.564Z,1.40
2022-08-11T13:24:01.086Z,1.63
2022-08-11T13:26:47.395Z,1.90
2022-08-11T13:29:23.305Z,1.60
2022-08-11T13:31:52.219Z,1.75
2022-08-11T13:34:21.377Z,1.67
2022-08-11T13:36:52.182Z,1.40
2022-08-11T13:39:22.869Z,1.70
2022-08-11T13:44:24.814Z,1.60
2022-08-11T13:46:54.192Z,1.73
2022-08-11T13:49:22.013Z,1.58
2022-08-11T13:51:49.637Z,1.40
2022-08-11T13:54:21.491Z,1.50
2022-08-11T13:56:52.813Z,1.42
2022-08-11T13:59:23.100Z,1.80
2022-08-11T14:02:19.762Z,1.58
2022-08-11T14:07:20.644Z,1.50
2022-08-11T14:09:48.251Z,1.70
2022-08-11T14:12:44.907Z,1.60
2022-08-11T14:15:19.933Z,1.45
2022-08-11T14:17:57.354Z,1.58
2022-08-11T14:20:39.374Z,1.40
2022-08-11T14:23:11.363Z,1.70
2022-08-11T14:26:02.291Z,1.45
2022-08-11T14:28:37.510Z,1.88
2022-08-11T14:31:09.606Z,1.58
2022-08-11T14:33:58.323Z,1.30
2022-08-11T14:36:28.659Z,1.38
2022-08-11T14:38:55.889Z,1.47
2022-08-11T14:42:12.462Z,1.50
2022-08-11T14:44:50.572Z,1.65
2022-08-11T14:47:24.066Z,1.70
2022-08-11T14:49:58.075Z,1.48
2022-08-11T14:52:39.175Z,1.77
2022-08-11T14:55:26.526Z,1.58
2022-08-11T14:57:56.693Z,1.65
2022-08-11T15:00:24.359Z,1.80
2022-08-11T15:03:10.518Z,1.40
2022-08-11T15:05:57.062Z,1.52
2022-08-11T15:08:52.629Z,1.38
2022-08-11T15:11:41.838Z,1.65
2022-08-11T15:14:10.416Z,1.60
2022-08-11T15:17:00.451Z,1.67
2022-08-11T15:19:29.979Z,1.90
2022-08-11T15:22:27.386Z,1.25
2022-08-11T15:24:54.762Z,1.52
2022-08-11T15:27:42.962Z,1.50
2022-08-11T15:30:33.199Z,1.60
2022-08-11T15:33:25.601Z,1.80
2022-08-11T15:36:26.643Z,1.45
2022-08-11T15:39:35.046Z,1.90
2022-08-11T15:42:30.797Z,1.70
2022-08-11T15:45:21.541Z,1.50
2022-08-11T15:48:02.479Z,1.67
2022-08-11T15:50:36.374Z,1.98
2022-08-11T15:53:11.858Z,1.90
2022-08-11T15:55:39.420Z,1.70
2022-08-11T15:58:28.130Z,1.50
2022-08-11T16:01:16.517Z,1.70
2022-08-11T16:04:12.193Z,1.65
2022-08-11T16:07:01.084Z,1.60
2022-08-11T16:09:46.020Z,1.80
2022-08-11T16:12:18.824Z,1.35
2022-08-11T16:15:09.132Z,1.50
2022-08-11T16:17:44.445Z,1.65
2022-08-11T16:20:14.479Z,1.77
2022-08-11T16:22:55.208Z,1.50
2022-08-11T16:27:03.823Z,1.40
2022-08-11T16:28:20.621Z,1.70
2022-08-11T16:30:49.057Z,1.90
2022-08-11T16:33:48.047Z,1.63
2022-08-11T16:36:24.291Z,1.65
2022-08-11T16:38:52.754Z,1.63
2022-08-11T16:41:42.735Z,1.60
2022-08-11T16:44:37.773Z,1.70
2022-08-11T16:47:07.712Z,1.70
2022-08-11T16:49:42.976Z,1.50
2022-08-11T16:52:15.171Z,1.60
2022-08-11T16:54:44.546Z,1.40
2022-08-11T16:57:42.813Z,1.45
2022-08-11T17:00:15.309Z,1.40
2022-08-11T17:03:05.995Z,1.60
2022-08-11T17:05:57.314Z,1.83
2022-08-11T17:09:03.438Z,1.80
2022-08-11T17:11:52.698Z,1.80
2022-08-11T17:14:50.248Z,1.50
2022-08-11T17:17:21.341Z,2.00
2022-08-11T17:20:39.564Z,1.77
2022-08-11T17:23:01.905Z,1.85
2022-08-11T17:25:32.268Z,1.80
2022-08-11T17:28:20.751Z,1.60
2022-08-11T17:31:21.998Z,1.73
2022-08-11T17:34:10.118Z,1.75
2022-08-11T17:36:41.660Z,1.60
2022-08-11T17:39:13.263Z,1.98
2022-08-11T17:41:59.059Z,1.90
2022-08-11T17:44:45.377Z,1.50
2022-08-11T17:47:32.204Z,1.70
2022-08-11T17:50:14.592Z,1.95
2022-08-11T17:53:04.425Z,1.85
2022-08-11T17:55:53.598Z,1.70
2022-08-11T17:58:40.009Z,1.80
2022-08-11T18:01:10.585Z,1.95
2022-08-11T18:03:40.707Z,1.60
2022-08-11T18:06:12.226Z,2.17
2022-08-11T18:09:03.649Z,1.70
2022-08-11T18:12:06.826Z,1.73
2022-08-11T18:14:58.549Z,1.75
2022-08-11T18:17:43.860Z,1.70
2022-08-11T18:20:29.290Z,1.60
2022-08-11T18:23:15.089Z,1.58
2022-08-11T18:26:06.461Z,1.70
2022-08-11T18:29:02.358Z,1.75
2022-08-11T18:31:54.234Z,1.70
2022-08-11T18:34:48.295Z,1.70
2022-08-11T18:37:38.031Z,1.80
2022-08-11T18:40:29.837Z,1.70
2022-08-11T18:43:20.345Z,1.70
2022-08-11T18:46:10.544Z,1.75
2022-08-11T18:49:10.638Z,1.83
2022-08-11T18:52:00.143Z,1.98
2022-08-11T18:54:48.879Z,2.13
2022-08-11T18:57:49.405Z,1.80
2022-08-11T19:00:41.748Z,1.75
2022-08-11T19:03:29.866Z,2.08
2022-08-11T19:06:38.234Z,1.85
2022-08-11T19:09:26.129Z,1.60
2022-08-11T19:12:13.417Z,1.80
2022-08-11T19:15:00.110Z,1.65
2022-08-11T19:17:46.885Z,1.50
2022-08-11T19:20:36.500Z,1.90
2022-08-11T19:23:24.866Z,1.88
2022-08-11T19:26:11.760Z,1.70
2022-08-11T19:29:00.456Z,2.00
2022-08-11T19:31:46.679Z,1.92
2022-08-11T19:34:35.536Z,1.73
2022-08-11T19:37:25.041Z,2.05
2022-08-11T19:40:13.069Z,1.90
2022-08-11T19:43:00.176Z,1.80
2022-08-11T19:45:52.629Z,1.80
2022-08-11T19:48:43.348Z,1.63
2022-08-11T19:51:30.078Z,3.53
2022-08-11T19:54:17.822Z,2.20
2022-08-11T19:57:04.546Z,2.08
2022-08-11T19:59:50.738Z,1.83
2022-08-11T20:02:35.947Z,1.90
2022-08-11T20:05:21.173Z,1.90
2022-08-11T20:08:08.057Z,1.70
2022-08-11T20:10:55.232Z,1.60
2022-08-11T20:13:43.577Z,2.22
2022-08-11T20:16:33.132Z,1.73
2022-08-11T20:19:26.349Z,1.67
2022-08-11T20:22:27.005Z,1.85
2022-08-11T20:25:14.362Z,1.70
2022-08-11T20:28:03.884Z,1.90
2022-08-11T20:30:51.698Z,2.00
2022-08-11T20:33:39.284Z,1.80
2022-08-11T20:36:26.011Z,1.80
2022-08-11T20:39:12.680Z,1.85
2022-08-11T20:42:00.096Z,1.92
2022-08-11T20:44:47.720Z,1.65
2022-08-11T20:47:59.403Z,2.03
2022-08-11T20:50:41.475Z,1.73
2022-08-11T20:53:35.977Z,2.13
2022-08-11T20:56:28.906Z,1.80
2022-08-11T20:59:21.484Z,2.25
2022-08-11T21:02:09.949Z,1.60
2022-08-11T21:04:57.375Z,2.00
2022-08-11T21:07:55.494Z,2.50
2022-08-11T21:10:47.019Z,1.95
2022-08-11T21:13:37.200Z,2.15
2022-08-11T21:16:26.627Z,2.20
2022-08-11T21:19:59.568Z,1.98
2022-08-11T21:22:59.299Z,2.10
2022-08-11T21:25:59.241Z,2.20
2022-08-11T21:28:46.112Z,2.05
2022-08-11T21:31:32.751Z,1.73
2022-08-11T21:34:18.586Z,1.83
2022-08-11T21:37:05.050Z,1.90
2022-08-11T21:39:51.845Z,1.80
2022-08-11T21:42:39.310Z,1.90
2022-08-11T21:45:27.577Z,2.00
2022-08-11T21:48:14.671Z,1.98
2022-08-11T21:50:59.947Z,2.00
2022-08-11T21:53:46.059Z,1.92
2022-08-11T21:56:32.286Z,2.08
2022-08-11T21:59:18.587Z,2.00
2022-08-11T22:02:06.183Z,2.08
2022-08-11T22:04:55.297Z,1.85
2022-08-11T22:07:41.256Z,1.88
2022-08-11T22:10:37.662Z,2.00
2022-08-11T22:13:27.206Z,2.15
2022-08-11T22:16:12.814Z,2.00
2022-08-11T22:18:58.204Z,2.28
2022-08-11T22:22:01.409Z,1.85
2022-08-11T22:24:51.621Z,2.40
2022-08-11T22:27:37.259Z,1.92
2022-08-11T22:30:25.794Z,2.00
2022-08-11T22:33:11.615Z,2.00
2022-08-11T22:36:00.897Z,2.00
2022-08-11T22:38:47.434Z,2.17
2022-08-11T22:41:32.676Z,1.80
2022-08-11T22:44:17.820Z,1.85
2022-08-11T22:47:03.571Z,1.83
2022-08-11T22:49:58.265Z,2.10
2022-08-11T22:52:46.810Z,1.90
2022-08-11T22:55:33.993Z,1.90
2022-08-11T22:58:21.112Z,2.28
2022-08-11T23:01:08.056Z,1.95
2022-08-11T23:03:54.450Z,1.80
2022-08-11T23:06:40.578Z,2.00
2022-08-11T23:09:28.365Z,1.90
2022-08-11T23:12:13.743Z,1.73
2022-08-11T23:14:59.430Z,2.17
2022-08-11T23:17:46.028Z,1.73
2022-08-11T23:20:43.302Z,1.80
2022-08-11T23:23:31.626Z,1.77
2022-08-11T23:26:17.863Z,1.90
2022-08-11T23:29:05.147Z,1.77
2022-08-11T23:31:53.479Z,2.00
2022-08-11T23:35:03.791Z,1.80
2022-08-11T23:37:48.175Z,2.05
2022-08-11T23:40:33.307Z,1.88
2022-08-11T23:43:19.764Z,2.13
2022-08-11T23:46:05.048Z,1.70
2022-08-11T23:48:51.266Z,1.80
2022-08-11T23:51:41.248Z,2.10
2022-08-11T23:54:31.584Z,2.13
2022-08-11T23:57:21.784Z,2.10
